Main page
METAR-TAF:

METAR-TAF

Airports :

Larissa, Greece

latitude: 39-38N, longitude: 022-25E, elevation: 73 m

METAR: missing

Time: 20:26 (17:26 UTC)

Forecast

The report was made 3 hours and 26 minutes ago, at 14:00 UTC
Forecast valid from 24 at 15 UTC to 24 at 24 UTC
Wind 3 kt from variable directions
Visibility 10 km or more
Few clouds at a height of 2500 ft
Temporary
from 24 at 15 UTC to 24 at 19 UTC
Wind 8 kt from the East/Northeast

TAF: LGLR 241400Z 2415/2424 VRB03KT 9999 FEW025 TEMPO 2415/2419 07008KT

Weather observations and forecasts of more than 4000 airports (METAR and TAF reports).

The available stations are represented by yellow and red dots on the map.

Hover mouse over dot to see the name of the station.

Then click to see weather observations and forecasts.

To change the map : click on the green buttons with a black cross to zoom in, on the green button with a dash to zoom out, or on the green arrows for adjacent maps.


METAR-TAF: